createdAt,value
2018-12-09T00:00:22.771Z,20.77
2018-12-09T00:05:26.057Z,20.81
2018-12-09T00:10:29.354Z,20.79
2018-12-09T00:15:32.634Z,20.78
2018-12-09T00:20:35.910Z,20.80
2018-12-09T00:25:39.281Z,20.81
2018-12-09T00:30:42.590Z,20.81
2018-12-09T00:35:45.869Z,20.79
2018-12-09T00:40:49.161Z,20.80
2018-12-09T00:45:52.446Z,20.79
2018-12-09T00:50:55.953Z,20.79
2018-12-09T00:55:59.962Z,20.81
2018-12-09T01:01:03.238Z,20.78
2018-12-09T01:06:06.510Z,20.78
2018-12-09T01:11:09.837Z,20.78
2018-12-09T01:16:13.123Z,20.78
2018-12-09T01:21:16.406Z,20.77
2018-12-09T01:26:19.698Z,20.77
2018-12-09T01:31:22.995Z,20.80
2018-12-09T01:36:26.280Z,20.76
2018-12-09T01:41:29.574Z,20.79
2018-12-09T01:46:32.879Z,20.77
2018-12-09T01:51:36.164Z,20.78
2018-12-09T01:56:39.722Z,20.77
2018-12-09T02:01:43.261Z,20.78
2018-12-09T02:06:46.551Z,20.82
2018-12-09T02:11:49.842Z,20.80
2018-12-09T02:16:53.658Z,20.82
2018-12-09T02:21:56.941Z,20.82
2018-12-09T02:27:00.218Z,20.80
2018-12-09T02:32:03.527Z,20.81
2018-12-09T02:37:06.818Z,20.79
2018-12-09T02:42:10.111Z,20.82
2018-12-09T02:47:13.403Z,20.80
2018-12-09T02:52:16.694Z,20.81
2018-12-09T02:57:19.989Z,20.80
2018-12-09T03:02:23.277Z,20.81
2018-12-09T03:07:26.583Z,20.82
2018-12-09T03:12:29.875Z,20.80
2018-12-09T03:17:33.186Z,20.81
2018-12-09T03:22:36.794Z,20.81
2018-12-09T03:27:40.075Z,20.83
2018-12-09T03:32:43.356Z,20.80
2018-12-09T03:37:46.649Z,20.81
2018-12-09T03:42:49.946Z,20.81
2018-12-09T03:47:53.245Z,20.86
2018-12-09T03:52:56.530Z,20.88
2018-12-09T03:57:59.838Z,20.94
2018-12-09T04:03:03.134Z,20.97
2018-12-09T04:08:06.538Z,20.92
2018-12-09T04:13:09.837Z,20.92
2018-12-09T04:18:13.139Z,20.87
2018-12-09T04:23:16.446Z,20.86
2018-12-09T04:28:19.750Z,20.81
2018-12-09T04:33:23.041Z,20.81
2018-12-09T04:38:26.365Z,20.76
2018-12-09T04:43:29.642Z,20.76
2018-12-09T04:48:32.954Z,20.73
2018-12-09T04:53:36.238Z,20.74
2018-12-09T05:03:57.399Z,20.68
2018-12-09T05:09:00.782Z,20.75
2018-12-09T05:14:04.176Z,20.80
2018-12-09T05:19:07.462Z,20.78
2018-12-09T05:24:10.769Z,20.71
2018-12-09T05:29:14.055Z,20.69
2018-12-09T05:34:17.340Z,20.65
2018-12-09T05:39:20.639Z,20.59
2018-12-09T05:44:23.921Z,20.53
2018-12-09T05:49:27.222Z,20.46
2018-12-09T05:54:30.530Z,20.50
2018-12-09T05:59:33.902Z,20.47
2018-12-09T06:04:37.186Z,20.46
2018-12-09T06:09:40.488Z,20.45
2018-12-09T06:14:43.777Z,20.42
2018-12-09T06:19:47.062Z,20.40
2018-12-09T06:24:50.345Z,20.41
2018-12-09T06:29:53.642Z,20.39
2018-12-09T06:34:56.930Z,20.37
2018-12-09T06:40:00.211Z,20.38
2018-12-09T06:45:03.558Z,20.35
2018-12-09T06:50:09.221Z,20.31
2018-12-09T06:55:12.512Z,20.32
2018-12-09T07:00:15.826Z,20.29
2018-12-09T07:05:19.122Z,20.28
2018-12-09T07:10:22.413Z,20.28
2018-12-09T07:15:25.736Z,20.26
2018-12-09T07:20:29.037Z,20.22
2018-12-09T07:25:32.331Z,20.23
2018-12-09T07:30:35.634Z,20.20
2018-12-09T07:35:38.930Z,20.18
2018-12-09T07:40:42.250Z,20.18
2018-12-09T07:45:45.657Z,20.16
2018-12-09T07:50:48.947Z,20.16
2018-12-09T07:55:52.234Z,19.56
2018-12-09T08:00:55.521Z,19.62
2018-12-09T08:05:58.806Z,19.94
2018-12-09T08:11:02.301Z,20.01
2018-12-09T08:16:05.590Z,20.00
2018-12-09T08:21:09.199Z,19.98
2018-12-09T08:26:12.720Z,20.01
2018-12-09T08:31:16.006Z,20.05
2018-12-09T08:36:19.291Z,20.06
2018-12-09T08:41:22.573Z,20.05
2018-12-09T08:46:25.857Z,20.02
2018-12-09T08:51:29.224Z,20.01
2018-12-09T08:56:32.502Z,19.99
2018-12-09T09:01:35.784Z,19.96
2018-12-09T09:06:39.127Z,19.92
2018-12-09T09:11:42.466Z,19.90
2018-12-09T09:16:45.754Z,19.98
2018-12-09T09:21:49.027Z,19.96
2018-12-09T09:26:52.305Z,19.96
2018-12-09T09:31:55.639Z,19.95
2018-12-09T09:36:58.925Z,19.97
2018-12-09T09:42:02.198Z,19.95
2018-12-09T09:47:05.475Z,19.95
2018-12-09T09:52:08.758Z,19.95
2018-12-09T09:57:12.034Z,19.95
2018-12-09T10:02:15.311Z,19.94
2018-12-09T10:07:19.238Z,19.92
2018-12-09T10:12:22.833Z,19.93
2018-12-09T10:17:26.137Z,19.93
2018-12-09T10:22:29.430Z,19.91
2018-12-09T10:27:32.816Z,19.93
2018-12-09T10:32:37.139Z,19.91
2018-12-09T10:37:41.318Z,19.91
2018-12-09T10:42:44.602Z,19.90
2018-12-09T10:47:48.006Z,19.89
2018-12-09T10:52:57.144Z,19.90
2018-12-09T10:58:00.506Z,19.89
2018-12-09T11:03:04.513Z,19.89
2018-12-09T11:08:07.828Z,19.89
2018-12-09T11:13:11.118Z,19.88
2018-12-09T11:18:14.493Z,19.87
2018-12-09T11:23:17.795Z,19.86
2018-12-09T11:28:21.168Z,19.86
2018-12-09T11:33:24.493Z,19.86
2018-12-09T11:38:27.818Z,19.88
2018-12-09T11:43:31.101Z,19.91
2018-12-09T11:48:34.398Z,19.89
2018-12-09T11:53:37.687Z,19.88
2018-12-09T11:58:40.998Z,19.89
2018-12-09T12:03:44.567Z,19.92
2018-12-09T12:08:47.874Z,19.91
2018-12-09T12:13:51.157Z,19.97
2018-12-09T12:18:54.432Z,19.96
2018-12-09T12:23:57.713Z,19.96
2018-12-09T12:29:01.187Z,19.94
2018-12-09T12:34:04.458Z,19.90
2018-12-09T12:39:08.061Z,19.88
2018-12-09T12:44:11.340Z,19.85
2018-12-09T12:49:14.614Z,19.85
2018-12-09T12:54:18.541Z,19.88
2018-12-09T12:59:21.829Z,19.90
2018-12-09T13:04:25.102Z,19.93
2018-12-09T13:09:28.405Z,19.98
2018-12-09T13:14:31.726Z,20.02
2018-12-09T13:19:35.079Z,20.05
2018-12-09T13:24:38.423Z,20.10
2018-12-09T13:29:41.723Z,20.12
2018-12-09T13:34:45.030Z,20.14
2018-12-09T13:39:48.336Z,20.15
2018-12-09T13:44:51.657Z,20.17
2018-12-09T13:49:54.967Z,20.18
2018-12-09T13:54:58.270Z,20.17
2018-12-09T14:00:01.572Z,20.20
2018-12-09T14:05:05.706Z,20.20
2018-12-09T14:10:09.011Z,20.21
2018-12-09T14:15:12.313Z,20.23
2018-12-09T14:20:15.610Z,20.36
2018-12-09T14:25:18.907Z,20.33
2018-12-09T14:30:22.206Z,20.32
2018-12-09T14:35:25.501Z,20.33
2018-12-09T14:40:28.798Z,20.34
2018-12-09T14:45:32.106Z,20.45
2018-12-09T14:50:35.395Z,20.41
2018-12-09T14:55:38.688Z,20.47
2018-12-09T15:00:41.989Z,20.42
2018-12-09T15:05:45.298Z,20.43
2018-12-09T15:10:48.600Z,20.44
2018-12-09T15:15:52.062Z,20.45
2018-12-09T15:20:55.373Z,20.46
2018-12-09T15:25:58.662Z,20.48
2018-12-09T15:31:01.948Z,20.47
2018-12-09T15:36:05.252Z,20.55
2018-12-09T15:41:08.538Z,20.50
2018-12-09T15:46:11.825Z,20.49
2018-12-09T15:51:15.390Z,20.53
2018-12-09T15:56:18.678Z,20.51
2018-12-09T16:01:21.978Z,20.51
2018-12-09T16:06:25.262Z,20.47
2018-12-09T16:11:28.610Z,20.46
2018-12-09T16:16:31.938Z,20.45
2018-12-09T16:21:35.266Z,20.47
2018-12-09T16:26:38.578Z,20.59
2018-12-09T16:31:41.862Z,20.59
2018-12-09T16:36:45.129Z,20.63
2018-12-09T16:41:48.454Z,20.60
2018-12-09T16:46:51.727Z,20.56
2018-12-09T16:51:54.994Z,20.52
2018-12-09T16:56:58.262Z,20.52
2018-12-09T17:02:01.541Z,20.50
2018-12-09T17:07:05.746Z,20.77
2018-12-09T17:12:09.963Z,21.29
2018-12-09T17:17:13.249Z,21.35
2018-12-09T17:22:16.529Z,21.56
2018-12-09T17:27:19.817Z,21.84
2018-12-09T17:32:23.105Z,21.77
2018-12-09T17:37:26.390Z,21.86
2018-12-09T17:42:29.677Z,21.80
2018-12-09T17:47:32.957Z,21.75
2018-12-09T17:52:36.240Z,21.69
2018-12-09T17:57:39.550Z,21.79
2018-12-09T18:02:42.833Z,21.72
2018-12-09T18:07:46.134Z,21.66
2018-12-09T18:12:49.412Z,21.67
2018-12-09T18:51:39.201Z,21.94
2018-12-09T18:56:42.482Z,21.89
2018-12-09T19:01:45.761Z,21.93
2018-12-09T19:06:49.054Z,22.06
2018-12-09T19:11:52.342Z,22.11
2018-12-09T19:16:55.638Z,22.21
2018-12-09T19:21:58.926Z,22.14
2018-12-09T19:27:02.218Z,21.99
2018-12-09T19:32:05.731Z,21.95
2018-12-09T19:37:09.966Z,21.93
2018-12-09T19:42:13.271Z,21.90
2018-12-09T19:47:16.561Z,21.99
2018-12-09T19:52:19.852Z,22.00
2018-12-09T19:57:23.138Z,22.27
2018-12-09T20:02:26.558Z,22.33
2018-12-09T20:07:29.830Z,22.31
2018-12-09T20:12:33.123Z,22.26
2018-12-09T20:17:36.442Z,22.15
2018-12-09T20:22:39.727Z,22.11
2018-12-09T20:27:43.026Z,22.12
2018-12-09T20:32:46.331Z,21.99
2018-12-09T20:37:49.613Z,21.96
2018-12-09T20:42:52.902Z,21.98
2018-12-09T20:47:56.194Z,22.14
2018-12-09T20:52:59.485Z,22.17
2018-12-09T20:58:02.782Z,22.17
2018-12-09T21:03:06.082Z,22.15
2018-12-09T21:08:09.403Z,22.14
2018-12-09T21:13:12.714Z,22.06
2018-12-09T21:18:16.045Z,22.04
2018-12-09T21:23:19.342Z,21.95
2018-12-09T21:28:22.635Z,21.98
2018-12-09T21:33:25.940Z,22.02
2018-12-09T21:38:29.247Z,22.12
2018-12-09T21:43:32.569Z,22.22
2018-12-09T21:48:35.862Z,22.15
2018-12-09T21:53:39.161Z,22.28
2018-12-09T21:58:42.469Z,22.26
2018-12-09T22:03:45.791Z,22.17
2018-12-09T22:08:49.118Z,22.07
2018-12-09T22:13:53.239Z,22.01
2018-12-09T22:18:56.562Z,21.93
2018-12-09T22:23:59.866Z,21.91
2018-12-09T22:29:03.158Z,22.02
2018-12-09T22:34:06.466Z,22.11
2018-12-09T22:39:09.766Z,22.16
2018-12-09T22:44:13.066Z,22.15
2018-12-09T22:49:16.369Z,22.16
2018-12-09T22:54:19.666Z,22.06
2018-12-09T22:59:22.966Z,22.00
2018-12-09T23:04:26.262Z,22.02
2018-12-09T23:09:29.638Z,21.98
2018-12-09T23:14:32.966Z,22.00
2018-12-09T23:19:36.289Z,21.92
2018-12-09T23:24:39.595Z,21.93
2018-12-09T23:29:42.914Z,21.97
2018-12-09T23:34:46.220Z,22.07
2018-12-09T23:39:49.530Z,22.12
2018-12-09T23:44:52.845Z,22.13
2018-12-09T23:49:56.147Z,22.07
2018-12-09T23:54:59.461Z,22.05
